sensor_id;sensor_type;location;lat;lon;timestamp;P1;durP1;ratioP1;P2;durP2;ratioP2
20511;SDS011;10414;52.074;5.126;2022-07-22T00:02:26;11.25;;;2.25;;
20511;SDS011;10414;52.074;5.126;2022-07-22T00:05:11;9.40;;;2.58;;
20511;SDS011;10414;52.074;5.126;2022-07-22T00:07:39;9.60;;;2.58;;
20511;SDS011;10414;52.074;5.126;2022-07-22T00:10:08;7.85;;;2.40;;
20511;SDS011;10414;52.074;5.126;2022-07-22T00:12:36;7.20;;;2.17;;
20511;SDS011;10414;52.074;5.126;2022-07-22T00:15:04;8.13;;;2.28;;
20511;SDS011;10414;52.074;5.126;2022-07-22T00:17:32;13.13;;;2.42;;
20511;SDS011;10414;52.074;5.126;2022-07-22T00:19:59;10.32;;;2.58;;
20511;SDS011;10414;52.074;5.126;2022-07-22T00:22:26;7.82;;;2.17;;
20511;SDS011;10414;52.074;5.126;2022-07-22T00:24:53;8.80;;;2.33;;
20511;SDS011;10414;52.074;5.126;2022-07-22T00:27:21;7.70;;;2.30;;
20511;SDS011;10414;52.074;5.126;2022-07-22T00:29:48;7.63;;;2.08;;
20511;SDS011;10414;52.074;5.126;2022-07-22T00:32:16;13.60;;;2.90;;
20511;SDS011;10414;52.074;5.126;2022-07-22T00:34:43;7.32;;;2.47;;
20511;SDS011;10414;52.074;5.126;2022-07-22T00:37:10;8.55;;;2.35;;
20511;SDS011;10414;52.074;5.126;2022-07-22T00:39:37;8.75;;;2.67;;
20511;SDS011;10414;52.074;5.126;2022-07-22T00:42:04;11.52;;;2.33;;
20511;SDS011;10414;52.074;5.126;2022-07-22T00:44:33;7.07;;;1.85;;
20511;SDS011;10414;52.074;5.126;2022-07-22T00:47:01;8.70;;;2.10;;
20511;SDS011;10414;52.074;5.126;2022-07-22T00:49:28;8.23;;;2.00;;
20511;SDS011;10414;52.074;5.126;2022-07-22T00:51:55;14.20;;;2.35;;
20511;SDS011;10414;52.074;5.126;2022-07-22T00:54:22;5.75;;;2.10;;
20511;SDS011;10414;52.074;5.126;2022-07-22T00:56:50;10.90;;;2.00;;
20511;SDS011;10414;52.074;5.126;2022-07-22T00:59:17;9.85;;;2.10;;
20511;SDS011;10414;52.074;5.126;2022-07-22T01:01:47;7.40;;;2.05;;
20511;SDS011;10414;52.074;5.126;2022-07-22T01:04:14;6.78;;;1.90;;
20511;SDS011;10414;52.074;5.126;2022-07-22T01:06:41;6.97;;;1.95;;
20511;SDS011;10414;52.074;5.126;2022-07-22T01:09:09;8.75;;;2.00;;
20511;SDS011;10414;52.074;5.126;2022-07-22T01:11:37;7.38;;;1.90;;
20511;SDS011;10414;52.074;5.126;2022-07-22T01:14:03;6.07;;;1.60;;
20511;SDS011;10414;52.074;5.126;2022-07-22T01:16:30;7.18;;;1.63;;
20511;SDS011;10414;52.074;5.126;2022-07-22T01:18:59;4.60;;;1.60;;
20511;SDS011;10414;52.074;5.126;2022-07-22T01:21:27;7.43;;;1.92;;
20511;SDS011;10414;52.074;5.126;2022-07-22T01:23:54;8.43;;;1.80;;
20511;SDS011;10414;52.074;5.126;2022-07-22T01:26:21;8.40;;;2.10;;
20511;SDS011;10414;52.074;5.126;2022-07-22T01:28:48;8.45;;;1.80;;
20511;SDS011;10414;52.074;5.126;2022-07-22T01:31:16;6.78;;;1.60;;
20511;SDS011;10414;52.074;5.126;2022-07-22T01:33:43;9.10;;;1.98;;
20511;SDS011;10414;52.074;5.126;2022-07-22T01:36:10;8.18;;;1.83;;
20511;SDS011;10414;52.074;5.126;2022-07-22T01:38:39;8.20;;;1.83;;
20511;SDS011;10414;52.074;5.126;2022-07-22T01:41:06;9.38;;;2.08;;
20511;SDS011;10414;52.074;5.126;2022-07-22T01:43:33;6.30;;;1.90;;
20511;SDS011;10414;52.074;5.126;2022-07-22T01:46:01;5.63;;;1.80;;
20511;SDS011;10414;52.074;5.126;2022-07-22T01:48:28;5.65;;;1.95;;
20511;SDS011;10414;52.074;5.126;2022-07-22T01:50:55;11.07;;;2.38;;
20511;SDS011;10414;52.074;5.126;2022-07-22T01:53:22;5.38;;;1.70;;
20511;SDS011;10414;52.074;5.126;2022-07-22T01:55:51;6.60;;;2.10;;
20511;SDS011;10414;52.074;5.126;2022-07-22T01:58:18;7.28;;;1.80;;
20511;SDS011;10414;52.074;5.126;2022-07-22T02:00:45;7.95;;;2.33;;
20511;SDS011;10414;52.074;5.126;2022-07-22T02:03:12;7.75;;;1.80;;
20511;SDS011;10414;52.074;5.126;2022-07-22T02:05:39;7.43;;;2.10;;
20511;SDS011;10414;52.074;5.126;2022-07-22T02:08:07;5.50;;;1.80;;
20511;SDS011;10414;52.074;5.126;2022-07-22T02:10:37;8.88;;;2.25;;
20511;SDS011;10414;52.074;5.126;2022-07-22T02:13:06;10.70;;;3.22;;
20511;SDS011;10414;52.074;5.126;2022-07-22T02:15:34;6.22;;;1.70;;
20511;SDS011;10414;52.074;5.126;2022-07-22T02:18:08;6.45;;;1.40;;
20511;SDS011;10414;52.074;5.126;2022-07-22T02:20:36;9.32;;;1.80;;
20511;SDS011;10414;52.074;5.126;2022-07-22T02:23:03;9.18;;;1.80;;
20511;SDS011;10414;52.074;5.126;2022-07-22T02:25:30;5.88;;;1.48;;
20511;SDS011;10414;52.074;5.126;2022-07-22T02:27:57;13.88;;;1.85;;
20511;SDS011;10414;52.074;5.126;2022-07-22T02:30:25;9.52;;;1.95;;
20511;SDS011;10414;52.074;5.126;2022-07-22T02:32:52;9.30;;;1.80;;
20511;SDS011;10414;52.074;5.126;2022-07-22T02:35:19;10.88;;;1.98;;
20511;SDS011;10414;52.074;5.126;2022-07-22T02:37:46;4.13;;;1.40;;
20511;SDS011;10414;52.074;5.126;2022-07-22T02:40:13;9.15;;;1.90;;
20511;SDS011;10414;52.074;5.126;2022-07-22T02:42:40;7.45;;;1.60;;
20511;SDS011;10414;52.074;5.126;2022-07-22T02:45:07;7.15;;;2.00;;
20511;SDS011;10414;52.074;5.126;2022-07-22T02:47:35;8.07;;;1.65;;
20511;SDS011;10414;52.074;5.126;2022-07-22T02:50:12;7.68;;;1.80;;
20511;SDS011;10414;52.074;5.126;2022-07-22T02:52:39;10.02;;;1.65;;
20511;SDS011;10414;52.074;5.126;2022-07-22T02:55:06;8.20;;;2.00;;
20511;SDS011;10414;52.074;5.126;2022-07-22T02:57:33;8.80;;;1.80;;
20511;SDS011;10414;52.074;5.126;2022-07-22T03:00:01;11.15;;;1.75;;
20511;SDS011;10414;52.074;5.126;2022-07-22T03:02:29;6.25;;;1.55;;
20511;SDS011;10414;52.074;5.126;2022-07-22T03:04:58;7.18;;;1.58;;
20511;SDS011;10414;52.074;5.126;2022-07-22T03:07:24;6.95;;;1.88;;
20511;SDS011;10414;52.074;5.126;2022-07-22T03:09:52;4.88;;;1.67;;
20511;SDS011;10414;52.074;5.126;2022-07-22T03:12:19;7.60;;;1.90;;
20511;SDS011;10414;52.074;5.126;2022-07-22T03:14:46;8.32;;;1.67;;
20511;SDS011;10414;52.074;5.126;2022-07-22T03:17:13;7.93;;;1.90;;
20511;SDS011;10414;52.074;5.126;2022-07-22T03:19:40;7.68;;;1.80;;
20511;SDS011;10414;52.074;5.126;2022-07-22T03:22:09;7.63;;;1.80;;
20511;SDS011;10414;52.074;5.126;2022-07-22T03:24:36;5.70;;;1.60;;
20511;SDS011;10414;52.074;5.126;2022-07-22T03:27:03;10.15;;;1.55;;
20511;SDS011;10414;52.074;5.126;2022-07-22T03:29:30;6.75;;;1.85;;
20511;SDS011;10414;52.074;5.126;2022-07-22T03:31:57;9.57;;;1.65;;
20511;SDS011;10414;52.074;5.126;2022-07-22T03:34:24;9.63;;;1.70;;
20511;SDS011;10414;52.074;5.126;2022-07-22T03:36:50;7.72;;;1.50;;
20511;SDS011;10414;52.074;5.126;2022-07-22T03:39:19;5.60;;;1.40;;
20511;SDS011;10414;52.074;5.126;2022-07-22T03:41:45;7.10;;;1.63;;
20511;SDS011;10414;52.074;5.126;2022-07-22T03:44:14;6.80;;;1.50;;
20511;SDS011;10414;52.074;5.126;2022-07-22T03:46:41;8.73;;;1.65;;
20511;SDS011;10414;52.074;5.126;2022-07-22T03:49:08;7.55;;;1.70;;
20511;SDS011;10414;52.074;5.126;2022-07-22T03:51:35;6.38;;;1.70;;
20511;SDS011;10414;52.074;5.126;2022-07-22T03:54:02;6.38;;;1.45;;
20511;SDS011;10414;52.074;5.126;2022-07-22T03:56:33;5.32;;;1.52;;
20511;SDS011;10414;52.074;5.126;2022-07-22T03:58:59;11.15;;;1.80;;
20511;SDS011;10414;52.074;5.126;2022-07-22T04:01:27;6.70;;;1.27;;
20511;SDS011;10414;52.074;5.126;2022-07-22T04:03:54;10.30;;;1.45;;
20511;SDS011;10414;52.074;5.126;2022-07-22T04:06:20;5.13;;;1.40;;
20511;SDS011;10414;52.074;5.126;2022-07-22T04:08:47;5.05;;;1.30;;
20511;SDS011;10414;52.074;5.126;2022-07-22T04:11:14;4.13;;;1.27;;
20511;SDS011;10414;52.074;5.126;2022-07-22T04:13:42;6.32;;;1.52;;
20511;SDS011;10414;52.074;5.126;2022-07-22T04:16:09;6.50;;;1.52;;
20511;SDS011;10414;52.074;5.126;2022-07-22T04:18:36;5.40;;;1.60;;
20511;SDS011;10414;52.074;5.126;2022-07-22T04:21:03;5.30;;;1.50;;
20511;SDS011;10414;52.074;5.126;2022-07-22T04:23:30;4.88;;;1.20;;
20511;SDS011;10414;52.074;5.126;2022-07-22T04:25:57;7.07;;;1.52;;
20511;SDS011;10414;52.074;5.126;2022-07-22T04:28:24;6.63;;;1.30;;
20511;SDS011;10414;52.074;5.126;2022-07-22T04:30:53;5.43;;;1.73;;
20511;SDS011;10414;52.074;5.126;2022-07-22T04:33:19;5.57;;;1.50;;
20511;SDS011;10414;52.074;5.126;2022-07-22T04:35:46;6.53;;;1.92;;
20511;SDS011;10414;52.074;5.126;2022-07-22T04:38:15;9.48;;;1.85;;
20511;SDS011;10414;52.074;5.126;2022-07-22T04:40:42;5.88;;;1.77;;
20511;SDS011;10414;52.074;5.126;2022-07-22T04:43:09;7.28;;;1.42;;
20511;SDS011;10414;52.074;5.126;2022-07-22T04:45:36;6.57;;;1.75;;
20511;SDS011;10414;52.074;5.126;2022-07-22T04:48:04;6.45;;;1.60;;
20511;SDS011;10414;52.074;5.126;2022-07-22T04:50:31;6.57;;;1.73;;
20511;SDS011;10414;52.074;5.126;2022-07-22T04:52:58;6.32;;;1.40;;
20511;SDS011;10414;52.074;5.126;2022-07-22T04:55:25;5.03;;;1.30;;
20511;SDS011;10414;52.074;5.126;2022-07-22T04:57:52;5.30;;;1.50;;
20511;SDS011;10414;52.074;5.126;2022-07-22T05:00:19;8.32;;;2.10;;
20511;SDS011;10414;52.074;5.126;2022-07-22T05:02:46;5.25;;;1.30;;
20511;SDS011;10414;52.074;5.126;2022-07-22T05:05:17;3.63;;;1.40;;
20511;SDS011;10414;52.074;5.126;2022-07-22T05:07:45;5.78;;;1.10;;
20511;SDS011;10414;52.074;5.126;2022-07-22T05:10:11;5.50;;;0.95;;
20511;SDS011;10414;52.074;5.126;2022-07-22T05:12:39;6.25;;;1.20;;
20511;SDS011;10414;52.074;5.126;2022-07-22T05:15:06;3.70;;;1.10;;
20511;SDS011;10414;52.074;5.126;2022-07-22T05:17:34;4.88;;;1.27;;
20511;SDS011;10414;52.074;5.126;2022-07-22T05:20:01;4.50;;;1.08;;
20511;SDS011;10414;52.074;5.126;2022-07-22T05:22:31;3.97;;;1.05;;
20511;SDS011;10414;52.074;5.126;2022-07-22T05:24:58;4.25;;;1.23;;
20511;SDS011;10414;52.074;5.126;2022-07-22T05:27:25;3.28;;;1.40;;
20511;SDS011;10414;52.074;5.126;2022-07-22T05:29:52;4.65;;;1.50;;
20511;SDS011;10414;52.074;5.126;2022-07-22T05:32:19;4.43;;;1.80;;
20511;SDS011;10414;52.074;5.126;2022-07-22T05:34:45;6.22;;;2.40;;
20511;SDS011;10414;52.074;5.126;2022-07-22T05:37:13;6.95;;;3.00;;
20511;SDS011;10414;52.074;5.126;2022-07-22T05:39:42;6.13;;;3.05;;
20511;SDS011;10414;52.074;5.126;2022-07-22T05:42:09;4.15;;;2.42;;
20511;SDS011;10414;52.074;5.126;2022-07-22T05:44:36;4.93;;;2.50;;
20511;SDS011;10414;52.074;5.126;2022-07-22T05:47:02;4.88;;;2.85;;
20511;SDS011;10414;52.074;5.126;2022-07-22T05:49:30;7.50;;;2.70;;
20511;SDS011;10414;52.074;5.126;2022-07-22T05:51:57;5.43;;;2.72;;
20511;SDS011;10414;52.074;5.126;2022-07-22T05:54:25;5.00;;;2.67;;
20511;SDS011;10414;52.074;5.126;2022-07-22T05:56:53;6.72;;;2.60;;
20511;SDS011;10414;52.074;5.126;2022-07-22T05:59:20;4.93;;;2.63;;
20511;SDS011;10414;52.074;5.126;2022-07-22T06:01:47;4.53;;;2.60;;
20511;SDS011;10414;52.074;5.126;2022-07-22T06:04:14;6.05;;;3.10;;
20511;SDS011;10414;52.074;5.126;2022-07-22T06:06:41;7.07;;;2.53;;
20511;SDS011;10414;52.074;5.126;2022-07-22T06:09:08;5.25;;;2.88;;
20511;SDS011;10414;52.074;5.126;2022-07-22T06:11:35;5.82;;;2.20;;
20511;SDS011;10414;52.074;5.126;2022-07-22T06:14:04;5.75;;;2.20;;
20511;SDS011;10414;52.074;5.126;2022-07-22T06:16:31;5.68;;;1.92;;
20511;SDS011;10414;52.074;5.126;2022-07-22T06:18:59;4.53;;;1.73;;
20511;SDS011;10414;52.074;5.126;2022-07-22T06:21:26;4.88;;;1.67;;
20511;SDS011;10414;52.074;5.126;2022-07-22T06:23:55;6.13;;;1.42;;
20511;SDS011;10414;52.074;5.126;2022-07-22T06:26:23;4.15;;;1.40;;
20511;SDS011;10414;52.074;5.126;2022-07-22T06:28:50;3.90;;;1.10;;
20511;SDS011;10414;52.074;5.126;2022-07-22T06:31:18;3.45;;;1.23;;
20511;SDS011;10414;52.074;5.126;2022-07-22T06:33:45;3.65;;;1.00;;
20511;SDS011;10414;52.074;5.126;2022-07-22T06:36:12;1.85;;;0.80;;
20511;SDS011;10414;52.074;5.126;2022-07-22T06:38:39;5.85;;;1.30;;
20511;SDS011;10414;52.074;5.126;2022-07-22T06:41:06;6.07;;;1.10;;
20511;SDS011;10414;52.074;5.126;2022-07-22T06:43:33;4.90;;;1.25;;
20511;SDS011;10414;52.074;5.126;2022-07-22T06:46:00;2.67;;;1.10;;
20511;SDS011;10414;52.074;5.126;2022-07-22T06:48:28;3.30;;;0.88;;
20511;SDS011;10414;52.074;5.126;2022-07-22T06:50:55;4.88;;;1.33;;
20511;SDS011;10414;52.074;5.126;2022-07-22T06:53:23;4.70;;;1.20;;
20511;SDS011;10414;52.074;5.126;2022-07-22T06:55:50;4.20;;;1.20;;
20511;SDS011;10414;52.074;5.126;2022-07-22T06:58:17;4.15;;;1.00;;
20511;SDS011;10414;52.074;5.126;2022-07-22T07:00:43;4.05;;;1.10;;
20511;SDS011;10414;52.074;5.126;2022-07-22T07:03:10;5.00;;;1.52;;
20511;SDS011;10414;52.074;5.126;2022-07-22T07:05:38;8.60;;;1.70;;
20511;SDS011;10414;52.074;5.126;2022-07-22T07:08:05;4.63;;;1.13;;
20511;SDS011;10414;52.074;5.126;2022-07-22T07:10:32;4.38;;;1.00;;
20511;SDS011;10414;52.074;5.126;2022-07-22T07:12:59;4.10;;;1.10;;
20511;SDS011;10414;52.074;5.126;2022-07-22T07:15:26;3.15;;;0.95;;
20511;SDS011;10414;52.074;5.126;2022-07-22T07:17:54;6.82;;;1.40;;
20511;SDS011;10414;52.074;5.126;2022-07-22T07:20:22;5.55;;;1.20;;
20511;SDS011;10414;52.074;5.126;2022-07-22T07:22:51;6.22;;;1.10;;
20511;SDS011;10414;52.074;5.126;2022-07-22T07:25:18;4.20;;;1.02;;
20511;SDS011;10414;52.074;5.126;2022-07-22T07:27:46;3.72;;;0.90;;
20511;SDS011;10414;52.074;5.126;2022-07-22T07:30:13;5.18;;;1.20;;
20511;SDS011;10414;52.074;5.126;2022-07-22T07:32:40;5.40;;;1.10;;
20511;SDS011;10414;52.074;5.126;2022-07-22T07:35:07;4.07;;;1.10;;
20511;SDS011;10414;52.074;5.126;2022-07-22T07:37:34;3.53;;;0.90;;
20511;SDS011;10414;52.074;5.126;2022-07-22T07:40:02;6.07;;;1.13;;
20511;SDS011;10414;52.074;5.126;2022-07-22T07:42:30;3.63;;;1.15;;
20511;SDS011;10414;52.074;5.126;2022-07-22T07:44:57;7.30;;;1.20;;
20511;SDS011;10414;52.074;5.126;2022-07-22T07:47:24;3.85;;;1.13;;
20511;SDS011;10414;52.074;5.126;2022-07-22T07:49:51;4.38;;;1.15;;
20511;SDS011;10414;52.074;5.126;2022-07-22T07:52:18;8.02;;;1.35;;
20511;SDS011;10414;52.074;5.126;2022-07-22T07:54:45;5.30;;;1.20;;
20511;SDS011;10414;52.074;5.126;2022-07-22T07:57:14;5.65;;;1.20;;
20511;SDS011;10414;52.074;5.126;2022-07-22T07:59:41;6.13;;;1.40;;
20511;SDS011;10414;52.074;5.126;2022-07-22T08:02:08;6.18;;;1.40;;
20511;SDS011;10414;52.074;5.126;2022-07-22T08:04:35;4.18;;;1.02;;
20511;SDS011;10414;52.074;5.126;2022-07-22T08:07:02;4.45;;;1.10;;
20511;SDS011;10414;52.074;5.126;2022-07-22T08:09:30;3.03;;;1.10;;
20511;SDS011;10414;52.074;5.126;2022-07-22T08:11:57;4.55;;;1.08;;
20511;SDS011;10414;52.074;5.126;2022-07-22T08:14:25;4.47;;;1.02;;
20511;SDS011;10414;52.074;5.126;2022-07-22T08:16:52;3.45;;;1.00;;
20511;SDS011;10414;52.074;5.126;2022-07-22T08:19:19;4.25;;;1.10;;
20511;SDS011;10414;52.074;5.126;2022-07-22T08:21:46;5.05;;;1.45;;
20511;SDS011;10414;52.074;5.126;2022-07-22T08:24:13;4.13;;;1.33;;
20511;SDS011;10414;52.074;5.126;2022-07-22T08:26:40;5.03;;;1.13;;
20511;SDS011;10414;52.074;5.126;2022-07-22T08:29:07;4.35;;;1.10;;
20511;SDS011;10414;52.074;5.126;2022-07-22T08:31:36;6.30;;;1.38;;
20511;SDS011;10414;52.074;5.126;2022-07-22T08:34:03;4.20;;;1.02;;
20511;SDS011;10414;52.074;5.126;2022-07-22T08:36:30;5.13;;;1.50;;
20511;SDS011;10414;52.074;5.126;2022-07-22T08:38:57;4.50;;;1.00;;
20511;SDS011;10414;52.074;5.126;2022-07-22T08:41:25;3.63;;;0.98;;
20511;SDS011;10414;52.074;5.126;2022-07-22T08:43:52;4.57;;;1.02;;
20511;SDS011;10414;52.074;5.126;2022-07-22T08:46:19;6.63;;;1.27;;
20511;SDS011;10414;52.074;5.126;2022-07-22T08:48:47;3.50;;;1.20;;
20511;SDS011;10414;52.074;5.126;2022-07-22T08:51:18;4.07;;;1.10;;
20511;SDS011;10414;52.074;5.126;2022-07-22T08:53:50;3.10;;;1.10;;
20511;SDS011;10414;52.074;5.126;2022-07-22T08:56:17;5.95;;;1.33;;
20511;SDS011;10414;52.074;5.126;2022-07-22T08:58:44;3.63;;;1.35;;
20511;SDS011;10414;52.074;5.126;2022-07-22T09:01:12;3.38;;;1.10;;
20511;SDS011;10414;52.074;5.126;2022-07-22T09:03:43;3.78;;;1.20;;
20511;SDS011;10414;52.074;5.126;2022-07-22T09:06:14;6.72;;;1.60;;
20511;SDS011;10414;52.074;5.126;2022-07-22T09:08:54;4.85;;;1.55;;
20511;SDS011;10414;52.074;5.126;2022-07-22T09:11:23;8.13;;;1.60;;
20511;SDS011;10414;52.074;5.126;2022-07-22T09:13:53;4.65;;;1.77;;
20511;SDS011;10414;52.074;5.126;2022-07-22T09:19:08;4.65;;;1.70;;
20511;SDS011;10414;52.074;5.126;2022-07-22T09:21:37;5.13;;;1.88;;
20511;SDS011;10414;52.074;5.126;2022-07-22T09:24:05;4.20;;;1.70;;
20511;SDS011;10414;52.074;5.126;2022-07-22T09:26:34;3.97;;;1.90;;
20511;SDS011;10414;52.074;5.126;2022-07-22T09:29:02;5.25;;;2.10;;
20511;SDS011;10414;52.074;5.126;2022-07-22T09:31:30;5.63;;;1.85;;
20511;SDS011;10414;52.074;5.126;2022-07-22T09:33:58;4.18;;;1.73;;
20511;SDS011;10414;52.074;5.126;2022-07-22T09:36:26;6.35;;;2.13;;
20511;SDS011;10414;52.074;5.126;2022-07-22T09:38:55;6.57;;;2.30;;
20511;SDS011;10414;52.074;5.126;2022-07-22T09:41:22;4.95;;;2.15;;
20511;SDS011;10414;52.074;5.126;2022-07-22T09:43:49;5.15;;;2.30;;
20511;SDS011;10414;52.074;5.126;2022-07-22T09:46:16;6.82;;;2.70;;
20511;SDS011;10414;52.074;5.126;2022-07-22T09:48:58;5.03;;;2.70;;
20511;SDS011;10414;52.074;5.126;2022-07-22T09:51:25;8.40;;;2.90;;
20511;SDS011;10414;52.074;5.126;2022-07-22T09:53:52;6.10;;;2.58;;
20511;SDS011;10414;52.074;5.126;2022-07-22T09:56:21;4.40;;;2.33;;
20511;SDS011;10414;52.074;5.126;2022-07-22T09:58:50;7.07;;;3.30;;
20511;SDS011;10414;52.074;5.126;2022-07-22T10:01:17;7.82;;;3.08;;
20511;SDS011;10414;52.074;5.126;2022-07-22T10:03:45;6.20;;;3.05;;
20511;SDS011;10414;52.074;5.126;2022-07-22T10:06:15;6.38;;;3.03;;
20511;SDS011;10414;52.074;5.126;2022-07-22T10:08:42;7.18;;;2.85;;
20511;SDS011;10414;52.074;5.126;2022-07-22T10:11:10;6.38;;;3.33;;
20511;SDS011;10414;52.074;5.126;2022-07-22T10:13:38;4.80;;;2.70;;
20511;SDS011;10414;52.074;5.126;2022-07-22T10:16:06;6.97;;;3.40;;
20511;SDS011;10414;52.074;5.126;2022-07-22T10:18:33;5.10;;;3.33;;
20511;SDS011;10414;52.074;5.126;2022-07-22T10:21:02;6.03;;;3.58;;
20511;SDS011;10414;52.074;5.126;2022-07-22T10:23:29;6.70;;;3.38;;
20511;SDS011;10414;52.074;5.126;2022-07-22T10:25:57;6.47;;;3.67;;
20511;SDS011;10414;52.074;5.126;2022-07-22T10:28:26;6.68;;;3.58;;
20511;SDS011;10414;52.074;5.126;2022-07-22T10:31:07;5.38;;;3.38;;
20511;SDS011;10414;52.074;5.126;2022-07-22T10:33:44;5.93;;;3.20;;
20511;SDS011;10414;52.074;5.126;2022-07-22T10:36:13;7.03;;;3.38;;
20511;SDS011;10414;52.074;5.126;2022-07-22T10:38:44;5.65;;;3.60;;
20511;SDS011;10414;52.074;5.126;2022-07-22T10:41:30;7.88;;;3.95;;
20511;SDS011;10414;52.074;5.126;2022-07-22T10:44:01;7.28;;;3.70;;
20511;SDS011;10414;52.074;5.126;2022-07-22T10:49:14;10.73;;;3.15;;
20511;SDS011;10414;52.074;5.126;2022-07-22T10:57:41;6.85;;;2.88;;
20511;SDS011;10414;52.074;5.126;2022-07-22T11:00:10;6.63;;;3.00;;
20511;SDS011;10414;52.074;5.126;2022-07-22T11:02:38;6.20;;;3.08;;
20511;SDS011;10414;52.074;5.126;2022-07-22T11:05:05;5.10;;;3.03;;
20511;SDS011;10414;52.074;5.126;2022-07-22T11:07:33;6.45;;;2.90;;
20511;SDS011;10414;52.074;5.126;2022-07-22T11:10:10;7.53;;;3.13;;
20511;SDS011;10414;52.074;5.126;2022-07-22T11:12:38;8.25;;;3.65;;
20511;SDS011;10414;52.074;5.126;2022-07-22T11:15:07;5.32;;;3.10;;
20511;SDS011;10414;52.074;5.126;2022-07-22T11:17:36;7.30;;;3.20;;
20511;SDS011;10414;52.074;5.126;2022-07-22T11:20:04;5.45;;;3.10;;
20511;SDS011;10414;52.074;5.126;2022-07-22T11:22:33;5.03;;;2.70;;
20511;SDS011;10414;52.074;5.126;2022-07-22T11:25:00;4.53;;;2.72;;
20511;SDS011;10414;52.074;5.126;2022-07-22T11:27:30;6.18;;;3.20;;
20511;SDS011;10414;52.074;5.126;2022-07-22T11:29:57;7.15;;;3.30;;
20511;SDS011;10414;52.074;5.126;2022-07-22T11:32:26;8.75;;;3.30;;
20511;SDS011;10414;52.074;5.126;2022-07-22T11:34:57;5.65;;;3.47;;
20511;SDS011;10414;52.074;5.126;2022-07-22T11:37:25;7.25;;;3.65;;
20511;SDS011;10414;52.074;5.126;2022-07-22T11:39:58;5.47;;;3.38;;
20511;SDS011;10414;52.074;5.126;2022-07-22T11:42:27;7.00;;;3.47;;
20511;SDS011;10414;52.074;5.126;2022-07-22T11:44:54;7.03;;;3.40;;
20511;SDS011;10414;52.074;5.126;2022-07-22T11:47:21;6.45;;;3.22;;
20511;SDS011;10414;52.074;5.126;2022-07-22T11:49:49;5.03;;;3.25;;
20511;SDS011;10414;52.074;5.126;2022-07-22T11:52:16;5.30;;;3.60;;
20511;SDS011;10414;52.074;5.126;2022-07-22T11:54:44;5.65;;;3.25;;
20511;SDS011;10414;52.074;5.126;2022-07-22T11:57:12;6.85;;;3.60;;
20511;SDS011;10414;52.074;5.126;2022-07-22T11:59:40;7.75;;;3.55;;
20511;SDS011;10414;52.074;5.126;2022-07-22T12:02:08;6.40;;;3.15;;
20511;SDS011;10414;52.074;5.126;2022-07-22T12:04:38;6.88;;;3.35;;
20511;SDS011;10414;52.074;5.126;2022-07-22T12:07:07;8.07;;;3.17;;
20511;SDS011;10414;52.074;5.126;2022-07-22T12:09:37;5.00;;;3.30;;
20511;SDS011;10414;52.074;5.126;2022-07-22T12:12:06;5.60;;;2.92;;
20511;SDS011;10414;52.074;5.126;2022-07-22T12:14:33;6.25;;;3.00;;
20511;SDS011;10414;52.074;5.126;2022-07-22T12:17:02;6.95;;;3.13;;
20511;SDS011;10414;52.074;5.126;2022-07-22T12:19:32;6.15;;;3.08;;
20511;SDS011;10414;52.074;5.126;2022-07-22T12:22:01;8.10;;;3.20;;
20511;SDS011;10414;52.074;5.126;2022-07-22T12:24:31;6.30;;;2.70;;
20511;SDS011;10414;52.074;5.126;2022-07-22T12:27:00;7.25;;;3.00;;
20511;SDS011;10414;52.074;5.126;2022-07-22T12:29:29;6.97;;;3.20;;
20511;SDS011;10414;52.074;5.126;2022-07-22T12:31:58;9.15;;;2.83;;
20511;SDS011;10414;52.074;5.126;2022-07-22T12:37:17;6.60;;;3.00;;
20511;SDS011;10414;52.074;5.126;2022-07-22T12:39:55;6.07;;;2.70;;
20511;SDS011;10414;52.074;5.126;2022-07-22T12:42:24;5.03;;;2.42;;
20511;SDS011;10414;52.074;5.126;2022-07-22T12:44:59;4.90;;;2.40;;
20511;SDS011;10414;52.074;5.126;2022-07-22T12:47:47;5.72;;;2.40;;
20511;SDS011;10414;52.074;5.126;2022-07-22T12:50:24;5.03;;;2.58;;
20511;SDS011;10414;52.074;5.126;2022-07-22T12:52:53;4.95;;;2.60;;
20511;SDS011;10414;52.074;5.126;2022-07-22T12:55:22;4.68;;;2.20;;
20511;SDS011;10414;52.074;5.126;2022-07-22T12:57:50;4.78;;;2.10;;
20511;SDS011;10414;52.074;5.126;2022-07-22T13:00:18;6.13;;;2.38;;
20511;SDS011;10414;52.074;5.126;2022-07-22T13:02:46;5.00;;;2.33;;
20511;SDS011;10414;52.074;5.126;2022-07-22T13:05:13;4.20;;;2.05;;
20511;SDS011;10414;52.074;5.126;2022-07-22T13:07:40;6.50;;;3.00;;
20511;SDS011;10414;52.074;5.126;2022-07-22T13:10:08;5.80;;;2.00;;
20511;SDS011;10414;52.074;5.126;2022-07-22T13:12:37;6.28;;;2.05;;
20511;SDS011;10414;52.074;5.126;2022-07-22T13:15:04;3.53;;;1.70;;
20511;SDS011;10414;52.074;5.126;2022-07-22T13:17:33;5.88;;;2.15;;
20511;SDS011;10414;52.074;5.126;2022-07-22T13:20:00;3.70;;;2.20;;
20511;SDS011;10414;52.074;5.126;2022-07-22T13:22:27;5.53;;;2.00;;
20511;SDS011;10414;52.074;5.126;2022-07-22T13:24:54;5.25;;;2.30;;
20511;SDS011;10414;52.074;5.126;2022-07-22T13:27:21;4.57;;;1.90;;
20511;SDS011;10414;52.074;5.126;2022-07-22T13:29:49;4.78;;;2.13;;
20511;SDS011;10414;52.074;5.126;2022-07-22T13:32:16;5.13;;;1.80;;
20511;SDS011;10414;52.074;5.126;2022-07-22T13:34:43;4.05;;;1.77;;
20511;SDS011;10414;52.074;5.126;2022-07-22T13:37:10;6.90;;;1.88;;
20511;SDS011;10414;52.074;5.126;2022-07-22T13:39:37;4.47;;;1.73;;
20511;SDS011;10414;52.074;5.126;2022-07-22T13:42:05;5.20;;;2.03;;
20511;SDS011;10414;52.074;5.126;2022-07-22T13:44:33;3.80;;;1.60;;
20511;SDS011;10414;52.074;5.126;2022-07-22T13:47:02;5.40;;;2.38;;
20511;SDS011;10414;52.074;5.126;2022-07-22T13:49:29;5.40;;;2.20;;
20511;SDS011;10414;52.074;5.126;2022-07-22T13:51:56;5.95;;;2.50;;
20511;SDS011;10414;52.074;5.126;2022-07-22T13:54:23;4.80;;;2.50;;
20511;SDS011;10414;52.074;5.126;2022-07-22T13:56:50;5.32;;;2.20;;
20511;SDS011;10414;52.074;5.126;2022-07-22T13:59:17;5.50;;;2.30;;
20511;SDS011;10414;52.074;5.126;2022-07-22T14:01:44;6.45;;;2.20;;
20511;SDS011;10414;52.074;5.126;2022-07-22T14:04:12;5.25;;;2.28;;
20511;SDS011;10414;52.074;5.126;2022-07-22T14:06:39;3.90;;;1.88;;
20511;SDS011;10414;52.074;5.126;2022-07-22T14:09:06;5.60;;;2.20;;
20511;SDS011;10414;52.074;5.126;2022-07-22T14:11:33;3.92;;;1.77;;
20511;SDS011;10414;52.074;5.126;2022-07-22T14:14:00;6.07;;;2.20;;
20511;SDS011;10414;52.074;5.126;2022-07-22T14:16:27;4.40;;;2.05;;
20511;SDS011;10414;52.074;5.126;2022-07-22T14:19:01;7.22;;;2.00;;
20511;SDS011;10414;52.074;5.126;2022-07-22T14:21:32;4.07;;;1.73;;
20511;SDS011;10414;52.074;5.126;2022-07-22T14:23:59;5.65;;;2.05;;
20511;SDS011;10414;52.074;5.126;2022-07-22T14:26:26;5.15;;;2.17;;
20511;SDS011;10414;52.074;5.126;2022-07-22T14:28:54;4.85;;;2.22;;
20511;SDS011;10414;52.074;5.126;2022-07-22T14:31:21;5.50;;;2.00;;
20511;SDS011;10414;52.074;5.126;2022-07-22T14:33:48;8.27;;;2.58;;
20511;SDS011;10414;52.074;5.126;2022-07-22T14:36:15;5.18;;;1.95;;
20511;SDS011;10414;52.074;5.126;2022-07-22T14:38:44;6.35;;;2.00;;
20511;SDS011;10414;52.074;5.126;2022-07-22T14:41:11;4.47;;;1.70;;
20511;SDS011;10414;52.074;5.126;2022-07-22T14:43:38;6.82;;;2.25;;
20511;SDS011;10414;52.074;5.126;2022-07-22T14:46:05;3.72;;;1.80;;
20511;SDS011;10414;52.074;5.126;2022-07-22T14:48:34;5.15;;;1.70;;
20511;SDS011;10414;52.074;5.126;2022-07-22T14:51:02;3.80;;;2.10;;
20511;SDS011;10414;52.074;5.126;2022-07-22T14:53:29;3.35;;;1.50;;
20511;SDS011;10414;52.074;5.126;2022-07-22T14:55:58;4.88;;;2.00;;
20511;SDS011;10414;52.074;5.126;2022-07-22T14:58:25;4.70;;;1.70;;
20511;SDS011;10414;52.074;5.126;2022-07-22T15:00:52;4.85;;;1.60;;
20511;SDS011;10414;52.074;5.126;2022-07-22T15:03:19;4.53;;;1.60;;
20511;SDS011;10414;52.074;5.126;2022-07-22T15:05:46;7.53;;;2.00;;
20511;SDS011;10414;52.074;5.126;2022-07-22T15:08:13;6.32;;;2.15;;